Aviation Digital Data Service (ADDS)

Output produced by METARs form (1524 UTC 23 September 2020)
found at http://aviationweather.gov/metar/data/
 
KHOU 231444Z 2315/2412 31015KT 6SM BR OVC007 
     TEMPO 2315/2318 2SM -RA BR OVC004 
     FM240000 35013KT P6SM OVC015 
     FM240600 35006KT P6SM BKN015 BKN050